sensor_id;sensor_type;location;lat;lon;timestamp;P1;durP1;ratioP1;P2;durP2;ratioP2
62679;SDS011;48746;55.578;37.902;2022-07-22T00:00:54;6.93;;;2.50;;
62679;SDS011;48746;55.578;37.902;2022-07-22T00:03:20;3.15;;;2.50;;
62679;SDS011;48746;55.578;37.902;2022-07-22T00:05:47;4.50;;;2.17;;
62679;SDS011;48746;55.578;37.902;2022-07-22T00:08:13;5.30;;;2.38;;
62679;SDS011;48746;55.578;37.902;2022-07-22T00:10:42;4.53;;;2.25;;
62679;SDS011;48746;55.578;37.902;2022-07-22T00:13:08;7.05;;;2.17;;
62679;SDS011;48746;55.578;37.902;2022-07-22T00:15:35;4.25;;;2.20;;
62679;SDS011;48746;55.578;37.902;2022-07-22T00:18:01;4.72;;;2.15;;
62679;SDS011;48746;55.578;37.902;2022-07-22T00:20:30;3.83;;;2.22;;
62679;SDS011;48746;55.578;37.902;2022-07-22T00:22:56;5.55;;;2.17;;
62679;SDS011;48746;55.578;37.902;2022-07-22T00:25:23;4.07;;;1.90;;
62679;SDS011;48746;55.578;37.902;2022-07-22T00:27:49;4.60;;;2.10;;
62679;SDS011;48746;55.578;37.902;2022-07-22T00:30:18;3.95;;;2.33;;
62679;SDS011;48746;55.578;37.902;2022-07-22T00:32:45;5.13;;;2.00;;
62679;SDS011;48746;55.578;37.902;2022-07-22T00:35:12;6.13;;;2.40;;
62679;SDS011;48746;55.578;37.902;2022-07-22T00:37:38;6.30;;;2.28;;
62679;SDS011;48746;55.578;37.902;2022-07-22T00:40:07;4.22;;;2.10;;
62679;SDS011;48746;55.578;37.902;2022-07-22T00:42:34;4.55;;;2.35;;
62679;SDS011;48746;55.578;37.902;2022-07-22T00:45:01;5.35;;;2.17;;
62679;SDS011;48746;55.578;37.902;2022-07-22T00:47:29;3.72;;;2.25;;
62679;SDS011;48746;55.578;37.902;2022-07-22T00:49:58;7.65;;;2.95;;
62679;SDS011;48746;55.578;37.902;2022-07-22T00:52:24;6.93;;;2.30;;
62679;SDS011;48746;55.578;37.902;2022-07-22T00:54:51;4.32;;;2.00;;
62679;SDS011;48746;55.578;37.902;2022-07-22T00:57:17;3.70;;;2.22;;
62679;SDS011;48746;55.578;37.902;2022-07-22T00:59:47;2.72;;;1.85;;
62679;SDS011;48746;55.578;37.902;2022-07-22T01:02:13;7.20;;;2.55;;
62679;SDS011;48746;55.578;37.902;2022-07-22T01:04:39;5.03;;;2.25;;
62679;SDS011;48746;55.578;37.902;2022-07-22T01:07:06;5.25;;;2.70;;
62679;SDS011;48746;55.578;37.902;2022-07-22T01:09:35;5.78;;;2.40;;
62679;SDS011;48746;55.578;37.902;2022-07-22T01:12:01;3.88;;;2.10;;
62679;SDS011;48746;55.578;37.902;2022-07-22T01:14:30;3.22;;;2.65;;
62679;SDS011;48746;55.578;37.902;2022-07-22T01:16:56;3.75;;;2.65;;
62679;SDS011;48746;55.578;37.902;2022-07-22T01:19:26;4.25;;;2.58;;
62679;SDS011;48746;55.578;37.902;2022-07-22T01:21:52;4.22;;;2.30;;
62679;SDS011;48746;55.578;37.902;2022-07-22T01:24:19;4.20;;;2.40;;
62679;SDS011;48746;55.578;37.902;2022-07-22T01:26:45;6.50;;;3.00;;
62679;SDS011;48746;55.578;37.902;2022-07-22T01:29:11;6.28;;;2.90;;
62679;SDS011;48746;55.578;37.902;2022-07-22T01:31:37;3.40;;;2.80;;
62679;SDS011;48746;55.578;37.902;2022-07-22T01:34:04;5.45;;;2.65;;
62679;SDS011;48746;55.578;37.902;2022-07-22T01:36:34;8.00;;;2.72;;
62679;SDS011;48746;55.578;37.902;2022-07-22T01:39:05;4.60;;;2.80;;
62679;SDS011;48746;55.578;37.902;2022-07-22T01:41:31;5.05;;;2.90;;
62679;SDS011;48746;55.578;37.902;2022-07-22T01:43:58;6.47;;;3.17;;
62679;SDS011;48746;55.578;37.902;2022-07-22T01:46:24;4.10;;;2.85;;
62679;SDS011;48746;55.578;37.902;2022-07-22T01:48:51;4.78;;;3.78;;
62679;SDS011;48746;55.578;37.902;2022-07-22T01:51:18;6.32;;;3.58;;
62679;SDS011;48746;55.578;37.902;2022-07-22T01:53:45;8.52;;;3.97;;
62679;SDS011;48746;55.578;37.902;2022-07-22T01:56:11;9.13;;;4.32;;
62679;SDS011;48746;55.578;37.902;2022-07-22T01:58:46;9.40;;;5.07;;
62679;SDS011;48746;55.578;37.902;2022-07-22T02:01:13;9.15;;;5.30;;
62679;SDS011;48746;55.578;37.902;2022-07-22T02:03:39;8.20;;;4.82;;
62679;SDS011;48746;55.578;37.902;2022-07-22T02:06:07;7.13;;;4.57;;
62679;SDS011;48746;55.578;37.902;2022-07-22T02:08:34;8.60;;;5.05;;
62679;SDS011;48746;55.578;37.902;2022-07-22T02:11:09;13.55;;;4.40;;
62679;SDS011;48746;55.578;37.902;2022-07-22T02:13:45;10.57;;;4.10;;
62679;SDS011;48746;55.578;37.902;2022-07-22T02:16:11;4.63;;;3.50;;
62679;SDS011;48746;55.578;37.902;2022-07-22T02:18:38;10.52;;;3.25;;
62679;SDS011;48746;55.578;37.902;2022-07-22T02:21:05;4.78;;;2.80;;
62679;SDS011;48746;55.578;37.902;2022-07-22T02:23:31;2.47;;;2.10;;
62679;SDS011;48746;55.578;37.902;2022-07-22T02:25:58;3.83;;;2.17;;
62679;SDS011;48746;55.578;37.902;2022-07-22T02:28:24;6.38;;;2.53;;
62679;SDS011;48746;55.578;37.902;2022-07-22T02:30:50;4.43;;;2.25;;
62679;SDS011;48746;55.578;37.902;2022-07-22T02:33:16;3.83;;;2.00;;
62679;SDS011;48746;55.578;37.902;2022-07-22T02:35:43;4.18;;;2.10;;
62679;SDS011;48746;55.578;37.902;2022-07-22T02:38:09;2.50;;;2.10;;
62679;SDS011;48746;55.578;37.902;2022-07-22T02:40:40;2.13;;;1.92;;
62679;SDS011;48746;55.578;37.902;2022-07-22T02:43:06;3.55;;;1.75;;
62679;SDS011;48746;55.578;37.902;2022-07-22T02:45:33;4.55;;;1.75;;
62679;SDS011;48746;55.578;37.902;2022-07-22T02:48:00;1.92;;;1.63;;
62679;SDS011;48746;55.578;37.902;2022-07-22T02:50:29;2.05;;;1.70;;
62679;SDS011;48746;55.578;37.902;2022-07-22T02:52:56;2.22;;;1.60;;
62679;SDS011;48746;55.578;37.902;2022-07-22T02:55:25;2.38;;;1.63;;
62679;SDS011;48746;55.578;37.902;2022-07-22T02:57:53;3.53;;;2.10;;
62679;SDS011;48746;55.578;37.902;2022-07-22T03:03:29;6.03;;;2.00;;
62679;SDS011;48746;55.578;37.902;2022-07-22T03:05:56;3.60;;;1.70;;
62679;SDS011;48746;55.578;37.902;2022-07-22T03:08:32;2.45;;;2.20;;
62679;SDS011;48746;55.578;37.902;2022-07-22T03:10:59;4.53;;;2.00;;
62679;SDS011;48746;55.578;37.902;2022-07-22T03:13:25;4.50;;;2.13;;
62679;SDS011;48746;55.578;37.902;2022-07-22T03:15:52;3.13;;;2.00;;
62679;SDS011;48746;55.578;37.902;2022-07-22T03:18:20;3.08;;;2.10;;
62679;SDS011;48746;55.578;37.902;2022-07-22T03:20:46;2.53;;;2.33;;
62679;SDS011;48746;55.578;37.902;2022-07-22T03:23:13;2.20;;;1.95;;
62679;SDS011;48746;55.578;37.902;2022-07-22T03:25:40;4.70;;;1.92;;
62679;SDS011;48746;55.578;37.902;2022-07-22T03:28:07;2.88;;;1.90;;
62679;SDS011;48746;55.578;37.902;2022-07-22T03:30:37;4.57;;;2.17;;
62679;SDS011;48746;55.578;37.902;2022-07-22T03:33:04;2.25;;;1.90;;
62679;SDS011;48746;55.578;37.902;2022-07-22T03:35:35;3.55;;;1.90;;
62679;SDS011;48746;55.578;37.902;2022-07-22T03:38:02;2.33;;;2.10;;
62679;SDS011;48746;55.578;37.902;2022-07-22T03:40:32;1.98;;;1.75;;
62679;SDS011;48746;55.578;37.902;2022-07-22T03:42:58;4.32;;;2.10;;
62679;SDS011;48746;55.578;37.902;2022-07-22T03:45:25;2.65;;;2.00;;
62679;SDS011;48746;55.578;37.902;2022-07-22T03:47:52;6.03;;;2.20;;
62679;SDS011;48746;55.578;37.902;2022-07-22T03:50:22;2.67;;;1.90;;
62679;SDS011;48746;55.578;37.902;2022-07-22T03:52:48;2.30;;;2.10;;
62679;SDS011;48746;55.578;37.902;2022-07-22T03:55:14;3.50;;;2.00;;
62679;SDS011;48746;55.578;37.902;2022-07-22T03:57:43;6.35;;;2.17;;
62679;SDS011;48746;55.578;37.902;2022-07-22T04:03:43;2.95;;;2.08;;
62679;SDS011;48746;55.578;37.902;2022-07-22T04:06:20;2.75;;;2.10;;
62679;SDS011;48746;55.578;37.902;2022-07-22T04:08:50;7.88;;;1.95;;
62679;SDS011;48746;55.578;37.902;2022-07-22T04:11:17;2.95;;;1.90;;
62679;SDS011;48746;55.578;37.902;2022-07-22T04:13:43;3.08;;;1.77;;
62679;SDS011;48746;55.578;37.902;2022-07-22T04:16:09;2.53;;;2.00;;
62679;SDS011;48746;55.578;37.902;2022-07-22T04:18:42;4.07;;;2.40;;
62679;SDS011;48746;55.578;37.902;2022-07-22T04:21:09;2.97;;;1.80;;
62679;SDS011;48746;55.578;37.902;2022-07-22T04:23:51;2.75;;;1.73;;
62679;SDS011;48746;55.578;37.902;2022-07-22T04:26:26;3.75;;;2.17;;
62679;SDS011;48746;55.578;37.902;2022-07-22T04:28:53;3.38;;;1.92;;
62679;SDS011;48746;55.578;37.902;2022-07-22T04:31:20;3.47;;;1.77;;
62679;SDS011;48746;55.578;37.902;2022-07-22T04:33:50;3.17;;;1.80;;
62679;SDS011;48746;55.578;37.902;2022-07-22T04:36:17;7.35;;;2.13;;
62679;SDS011;48746;55.578;37.902;2022-07-22T04:38:44;3.70;;;2.20;;
62679;SDS011;48746;55.578;37.902;2022-07-22T04:41:11;3.15;;;2.00;;
62679;SDS011;48746;55.578;37.902;2022-07-22T04:43:37;3.20;;;2.00;;
62679;SDS011;48746;55.578;37.902;2022-07-22T04:46:05;2.83;;;1.67;;
62679;SDS011;48746;55.578;37.902;2022-07-22T04:48:33;2.67;;;1.90;;
62679;SDS011;48746;55.578;37.902;2022-07-22T04:51:00;2.10;;;2.00;;
62679;SDS011;48746;55.578;37.902;2022-07-22T04:53:28;3.40;;;1.90;;
62679;SDS011;48746;55.578;37.902;2022-07-22T04:55:55;2.90;;;1.83;;
62679;SDS011;48746;55.578;37.902;2022-07-22T04:58:22;3.95;;;2.08;;
62679;SDS011;48746;55.578;37.902;2022-07-22T05:00:52;2.42;;;1.73;;
62679;SDS011;48746;55.578;37.902;2022-07-22T05:03:19;3.92;;;2.10;;
62679;SDS011;48746;55.578;37.902;2022-07-22T05:05:45;2.65;;;1.70;;
62679;SDS011;48746;55.578;37.902;2022-07-22T05:08:13;5.20;;;2.10;;
62679;SDS011;48746;55.578;37.902;2022-07-22T05:10:39;4.40;;;1.80;;
62679;SDS011;48746;55.578;37.902;2022-07-22T05:13:06;3.28;;;2.00;;
62679;SDS011;48746;55.578;37.902;2022-07-22T05:15:33;1.90;;;1.80;;
62679;SDS011;48746;55.578;37.902;2022-07-22T05:17:59;2.42;;;1.85;;
62679;SDS011;48746;55.578;37.902;2022-07-22T05:20:28;2.00;;;1.80;;
62679;SDS011;48746;55.578;37.902;2022-07-22T05:22:55;3.33;;;2.00;;
62679;SDS011;48746;55.578;37.902;2022-07-22T05:25:25;2.55;;;1.80;;
62679;SDS011;48746;55.578;37.902;2022-07-22T05:27:52;2.50;;;2.00;;
62679;SDS011;48746;55.578;37.902;2022-07-22T05:34:12;4.93;;;2.22;;
62679;SDS011;48746;55.578;37.902;2022-07-22T05:36:43;5.53;;;2.00;;
62679;SDS011;48746;55.578;37.902;2022-07-22T05:39:14;8.70;;;2.22;;
62679;SDS011;48746;55.578;37.902;2022-07-22T05:41:41;5.72;;;2.00;;
62679;SDS011;48746;55.578;37.902;2022-07-22T05:44:08;4.05;;;2.20;;
62679;SDS011;48746;55.578;37.902;2022-07-22T05:46:34;4.38;;;2.00;;
62679;SDS011;48746;55.578;37.902;2022-07-22T05:49:00;3.50;;;2.00;;
62679;SDS011;48746;55.578;37.902;2022-07-22T05:51:31;5.75;;;2.25;;
62679;SDS011;48746;55.578;37.902;2022-07-22T05:53:57;3.83;;;1.90;;
62679;SDS011;48746;55.578;37.902;2022-07-22T05:56:24;4.75;;;2.17;;
62679;SDS011;48746;55.578;37.902;2022-07-22T05:58:50;6.30;;;2.28;;
62679;SDS011;48746;55.578;37.902;2022-07-22T06:01:16;5.63;;;2.20;;
62679;SDS011;48746;55.578;37.902;2022-07-22T06:03:43;3.95;;;2.08;;
62679;SDS011;48746;55.578;37.902;2022-07-22T06:06:12;5.55;;;2.25;;
62679;SDS011;48746;55.578;37.902;2022-07-22T06:08:39;2.83;;;2.45;;
62679;SDS011;48746;55.578;37.902;2022-07-22T06:11:07;5.93;;;2.03;;
62679;SDS011;48746;55.578;37.902;2022-07-22T06:13:33;2.80;;;2.28;;
62679;SDS011;48746;55.578;37.902;2022-07-22T06:16:00;6.85;;;2.55;;
62679;SDS011;48746;55.578;37.902;2022-07-22T06:18:27;3.47;;;1.80;;
62679;SDS011;48746;55.578;37.902;2022-07-22T06:20:53;2.17;;;2.05;;
62679;SDS011;48746;55.578;37.902;2022-07-22T06:23:19;5.00;;;2.10;;
62679;SDS011;48746;55.578;37.902;2022-07-22T06:25:45;6.65;;;1.88;;
62679;SDS011;48746;55.578;37.902;2022-07-22T06:28:33;2.70;;;1.90;;
62679;SDS011;48746;55.578;37.902;2022-07-22T06:30:59;3.08;;;1.95;;
62679;SDS011;48746;55.578;37.902;2022-07-22T06:33:27;3.90;;;2.30;;
62679;SDS011;48746;55.578;37.902;2022-07-22T06:35:53;4.47;;;1.92;;
62679;SDS011;48746;55.578;37.902;2022-07-22T06:38:20;4.22;;;1.95;;
62679;SDS011;48746;55.578;37.902;2022-07-22T06:41:16;3.92;;;2.00;;
62679;SDS011;48746;55.578;37.902;2022-07-22T06:44:03;2.15;;;1.80;;
62679;SDS011;48746;55.578;37.902;2022-07-22T06:46:51;3.40;;;1.98;;
62679;SDS011;48746;55.578;37.902;2022-07-22T06:52:25;2.35;;;2.00;;
62679;SDS011;48746;55.578;37.902;2022-07-22T06:54:51;4.40;;;2.25;;
62679;SDS011;48746;55.578;37.902;2022-07-22T06:59:48;6.90;;;2.45;;
62679;SDS011;48746;55.578;37.902;2022-07-22T07:02:15;2.80;;;1.70;;
62679;SDS011;48746;55.578;37.902;2022-07-22T07:04:41;4.28;;;2.00;;
62679;SDS011;48746;55.578;37.902;2022-07-22T07:07:08;3.80;;;2.00;;
62679;SDS011;48746;55.578;37.902;2022-07-22T07:12:56;4.05;;;1.92;;
62679;SDS011;48746;55.578;37.902;2022-07-22T07:15:36;4.00;;;2.20;;
62679;SDS011;48746;55.578;37.902;2022-07-22T07:18:06;4.15;;;1.90;;
62679;SDS011;48746;55.578;37.902;2022-07-22T07:20:33;6.43;;;2.10;;
62679;SDS011;48746;55.578;37.902;2022-07-22T07:22:59;2.80;;;1.80;;
62679;SDS011;48746;55.578;37.902;2022-07-22T07:25:28;5.40;;;2.03;;
62679;SDS011;48746;55.578;37.902;2022-07-22T07:27:54;4.80;;;2.00;;
62679;SDS011;48746;55.578;37.902;2022-07-22T07:30:41;3.28;;;2.30;;
62679;SDS011;48746;55.578;37.902;2022-07-22T07:33:07;10.45;;;3.75;;
62679;SDS011;48746;55.578;37.902;2022-07-22T07:35:34;4.97;;;2.88;;
62679;SDS011;48746;55.578;37.902;2022-07-22T07:38:01;9.15;;;3.03;;
62679;SDS011;48746;55.578;37.902;2022-07-22T07:43:38;6.57;;;2.75;;
62679;SDS011;48746;55.578;37.902;2022-07-22T07:46:04;5.70;;;2.53;;
62679;SDS011;48746;55.578;37.902;2022-07-22T07:48:31;8.88;;;2.67;;
62679;SDS011;48746;55.578;37.902;2022-07-22T07:50:57;6.50;;;2.50;;
62679;SDS011;48746;55.578;37.902;2022-07-22T07:53:24;3.90;;;2.08;;
62679;SDS011;48746;55.578;37.902;2022-07-22T07:55:50;2.35;;;2.10;;
62679;SDS011;48746;55.578;37.902;2022-07-22T07:58:17;7.97;;;2.60;;
62679;SDS011;48746;55.578;37.902;2022-07-22T08:03:50;3.35;;;1.85;;
62679;SDS011;48746;55.578;37.902;2022-07-22T08:06:16;5.40;;;1.77;;
62679;SDS011;48746;55.578;37.902;2022-07-22T08:08:46;8.82;;;2.08;;
62679;SDS011;48746;55.578;37.902;2022-07-22T08:11:18;6.13;;;1.90;;
62679;SDS011;48746;55.578;37.902;2022-07-22T08:14:12;3.88;;;1.77;;
62679;SDS011;48746;55.578;37.902;2022-07-22T08:16:57;6.65;;;2.25;;
62679;SDS011;48746;55.578;37.902;2022-07-22T08:19:27;8.40;;;3.35;;
62679;SDS011;48746;55.578;37.902;2022-07-22T08:21:53;9.23;;;3.97;;
62679;SDS011;48746;55.578;37.902;2022-07-22T08:24:25;3.80;;;2.15;;
62679;SDS011;48746;55.578;37.902;2022-07-22T08:26:52;5.43;;;2.00;;
62679;SDS011;48746;55.578;37.902;2022-07-22T08:29:21;3.88;;;2.20;;
62679;SDS011;48746;55.578;37.902;2022-07-22T08:31:48;3.42;;;1.98;;
62679;SDS011;48746;55.578;37.902;2022-07-22T08:34:16;8.05;;;2.55;;
62679;SDS011;48746;55.578;37.902;2022-07-22T08:36:43;4.82;;;2.00;;
62679;SDS011;48746;55.578;37.902;2022-07-22T08:39:13;5.85;;;2.10;;
62679;SDS011;48746;55.578;37.902;2022-07-22T08:41:40;2.83;;;1.92;;
62679;SDS011;48746;55.578;37.902;2022-07-22T08:44:10;5.47;;;2.28;;
62679;SDS011;48746;55.578;37.902;2022-07-22T08:46:37;6.07;;;2.03;;
62679;SDS011;48746;55.578;37.902;2022-07-22T08:53:10;5.05;;;1.92;;
62679;SDS011;48746;55.578;37.902;2022-07-22T08:55:46;5.47;;;2.05;;
62679;SDS011;48746;55.578;37.902;2022-07-22T08:58:15;4.00;;;2.03;;
62679;SDS011;48746;55.578;37.902;2022-07-22T09:03:56;4.63;;;2.33;;
62679;SDS011;48746;55.578;37.902;2022-07-22T09:06:27;4.45;;;1.90;;
62679;SDS011;48746;55.578;37.902;2022-07-22T09:09:06;6.40;;;2.30;;
62679;SDS011;48746;55.578;37.902;2022-07-22T09:12:02;4.05;;;2.08;;
62679;SDS011;48746;55.578;37.902;2022-07-22T09:15:08;3.05;;;1.88;;
62679;SDS011;48746;55.578;37.902;2022-07-22T09:17:41;2.38;;;1.90;;
62679;SDS011;48746;55.578;37.902;2022-07-22T09:20:30;3.47;;;1.97;;
62679;SDS011;48746;55.578;37.902;2022-07-22T09:23:18;7.50;;;2.33;;
62679;SDS011;48746;55.578;37.902;2022-07-22T09:25:48;2.50;;;1.90;;
62679;SDS011;48746;55.578;37.902;2022-07-22T09:28:40;2.65;;;1.90;;
62679;SDS011;48746;55.578;37.902;2022-07-22T09:31:40;3.45;;;2.00;;
62679;SDS011;48746;55.578;37.902;2022-07-22T09:34:26;2.45;;;1.92;;
62679;SDS011;48746;55.578;37.902;2022-07-22T09:36:54;3.92;;;1.90;;
62679;SDS011;48746;55.578;37.902;2022-07-22T09:39:25;3.95;;;2.20;;
62679;SDS011;48746;55.578;37.902;2022-07-22T09:41:58;2.20;;;1.90;;
62679;SDS011;48746;55.578;37.902;2022-07-22T09:44:27;3.45;;;1.90;;
62679;SDS011;48746;55.578;37.902;2022-07-22T09:46:56;4.35;;;2.20;;
62679;SDS011;48746;55.578;37.902;2022-07-22T09:49:44;5.72;;;2.55;;
62679;SDS011;48746;55.578;37.902;2022-07-22T09:52:28;4.28;;;2.05;;
62679;SDS011;48746;55.578;37.902;2022-07-22T09:55:04;3.47;;;1.90;;
62679;SDS011;48746;55.578;37.902;2022-07-22T09:57:32;3.58;;;2.53;;
62679;SDS011;48746;55.578;37.902;2022-07-22T10:03:06;2.88;;;1.95;;
62679;SDS011;48746;55.578;37.902;2022-07-22T10:05:37;2.22;;;1.67;;
62679;SDS011;48746;55.578;37.902;2022-07-22T10:08:07;5.47;;;1.83;;
62679;SDS011;48746;55.578;37.902;2022-07-22T10:13:43;3.90;;;1.75;;
62679;SDS011;48746;55.578;37.902;2022-07-22T10:16:10;3.20;;;1.80;;
62679;SDS011;48746;55.578;37.902;2022-07-22T10:18:36;4.63;;;1.65;;
62679;SDS011;48746;55.578;37.902;2022-07-22T10:21:07;2.58;;;1.40;;
62679;SDS011;48746;55.578;37.902;2022-07-22T10:23:35;5.68;;;1.70;;
62679;SDS011;48746;55.578;37.902;2022-07-22T10:26:03;4.72;;;2.00;;
62679;SDS011;48746;55.578;37.902;2022-07-22T10:28:31;2.35;;;1.60;;
62679;SDS011;48746;55.578;37.902;2022-07-22T10:31:18;3.17;;;1.48;;
62679;SDS011;48746;55.578;37.902;2022-07-22T10:33:48;3.58;;;1.60;;
62679;SDS011;48746;55.578;37.902;2022-07-22T10:36:28;2.80;;;1.65;;
62679;SDS011;48746;55.578;37.902;2022-07-22T10:41:36;4.45;;;1.58;;
62679;SDS011;48746;55.578;37.902;2022-07-22T10:44:04;4.45;;;1.70;;
62679;SDS011;48746;55.578;37.902;2022-07-22T10:49:21;3.63;;;2.00;;
62679;SDS011;48746;55.578;37.902;2022-07-22T10:54:34;2.67;;;1.63;;
62679;SDS011;48746;55.578;37.902;2022-07-22T10:57:00;3.90;;;1.55;;
62679;SDS011;48746;55.578;37.902;2022-07-22T10:59:28;4.22;;;1.58;;
62679;SDS011;48746;55.578;37.902;2022-07-22T11:01:55;8.18;;;1.85;;
62679;SDS011;48746;55.578;37.902;2022-07-22T11:04:24;3.30;;;1.70;;
62679;SDS011;48746;55.578;37.902;2022-07-22T11:06:52;7.68;;;1.63;;
62679;SDS011;48746;55.578;37.902;2022-07-22T11:09:23;2.95;;;1.83;;
62679;SDS011;48746;55.578;37.902;2022-07-22T11:11:57;10.07;;;1.90;;
62679;SDS011;48746;55.578;37.902;2022-07-22T11:14:26;3.50;;;1.50;;
62679;SDS011;48746;55.578;37.902;2022-07-22T11:16:54;2.83;;;1.55;;
62679;SDS011;48746;55.578;37.902;2022-07-22T11:19:25;6.82;;;1.80;;
62679;SDS011;48746;55.578;37.902;2022-07-22T11:21:54;3.58;;;1.75;;
62679;SDS011;48746;55.578;37.902;2022-07-22T11:24:23;4.85;;;1.80;;
62679;SDS011;48746;55.578;37.902;2022-07-22T11:26:51;4.10;;;1.70;;
62679;SDS011;48746;55.578;37.902;2022-07-22T11:32:45;2.83;;;2.03;;
62679;SDS011;48746;55.578;37.902;2022-07-22T11:35:11;2.15;;;1.60;;
62679;SDS011;48746;55.578;37.902;2022-07-22T11:37:38;5.50;;;2.35;;
62679;SDS011;48746;55.578;37.902;2022-07-22T11:40:08;3.28;;;1.60;;
62679;SDS011;48746;55.578;37.902;2022-07-22T11:42:36;5.13;;;1.88;;
62679;SDS011;48746;55.578;37.902;2022-07-22T11:45:02;3.78;;;1.65;;
62679;SDS011;48746;55.578;37.902;2022-07-22T11:47:29;5.55;;;1.60;;
62679;SDS011;48746;55.578;37.902;2022-07-22T11:49:59;3.33;;;1.65;;
62679;SDS011;48746;55.578;37.902;2022-07-22T11:52:25;3.22;;;1.50;;
62679;SDS011;48746;55.578;37.902;2022-07-22T11:54:52;4.35;;;1.98;;
62679;SDS011;48746;55.578;37.902;2022-07-22T11:57:18;3.03;;;1.80;;
62679;SDS011;48746;55.578;37.902;2022-07-22T11:59:47;9.85;;;2.05;;
62679;SDS011;48746;55.578;37.902;2022-07-22T12:02:13;6.38;;;1.83;;
62679;SDS011;48746;55.578;37.902;2022-07-22T12:04:40;4.32;;;2.40;;
62679;SDS011;48746;55.578;37.902;2022-07-22T12:07:07;6.32;;;2.28;;
62679;SDS011;48746;55.578;37.902;2022-07-22T12:09:36;2.33;;;1.85;;
62679;SDS011;48746;55.578;37.902;2022-07-22T12:12:04;6.38;;;2.20;;
62679;SDS011;48746;55.578;37.902;2022-07-22T12:14:31;5.78;;;2.05;;
62679;SDS011;48746;55.578;37.902;2022-07-22T12:19:29;4.28;;;1.63;;
62679;SDS011;48746;55.578;37.902;2022-07-22T12:21:58;5.38;;;1.63;;
62679;SDS011;48746;55.578;37.902;2022-07-22T12:24:33;5.68;;;1.70;;
62679;SDS011;48746;55.578;37.902;2022-07-22T12:27:04;8.15;;;1.60;;
62679;SDS011;48746;55.578;37.902;2022-07-22T12:32:02;5.47;;;1.98;;
62679;SDS011;48746;55.578;37.902;2022-07-22T12:37:14;3.53;;;1.88;;
62679;SDS011;48746;55.578;37.902;2022-07-22T12:39:53;4.28;;;1.90;;
62679;SDS011;48746;55.578;37.902;2022-07-22T12:42:21;6.55;;;1.95;;
62679;SDS011;48746;55.578;37.902;2022-07-22T12:52:57;6.93;;;2.20;;
62679;SDS011;48746;55.578;37.902;2022-07-22T12:55:25;7.88;;;2.47;;
62679;SDS011;48746;55.578;37.902;2022-07-22T12:57:52;3.60;;;1.75;;
62679;SDS011;48746;55.578;37.902;2022-07-22T13:00:22;2.80;;;1.63;;
62679;SDS011;48746;55.578;37.902;2022-07-22T13:02:49;4.82;;;1.50;;
62679;SDS011;48746;55.578;37.902;2022-07-22T13:05:17;4.47;;;1.63;;
62679;SDS011;48746;55.578;37.902;2022-07-22T13:07:43;4.18;;;1.80;;
62679;SDS011;48746;55.578;37.902;2022-07-22T13:10:10;4.43;;;1.50;;
62679;SDS011;48746;55.578;37.902;2022-07-22T13:12:37;4.22;;;1.80;;
62679;SDS011;48746;55.578;37.902;2022-07-22T13:15:03;6.32;;;1.63;;
62679;SDS011;48746;55.578;37.902;2022-07-22T13:17:29;3.22;;;1.83;;
62679;SDS011;48746;55.578;37.902;2022-07-22T13:19:59;2.50;;;1.77;;
62679;SDS011;48746;55.578;37.902;2022-07-22T13:22:25;4.45;;;1.98;;
62679;SDS011;48746;55.578;37.902;2022-07-22T13:24:52;4.57;;;1.70;;
62679;SDS011;48746;55.578;37.902;2022-07-22T13:27:18;4.80;;;1.80;;
62679;SDS011;48746;55.578;37.902;2022-07-22T13:29:45;4.30;;;1.67;;
62679;SDS011;48746;55.578;37.902;2022-07-22T13:32:11;5.88;;;2.20;;
62679;SDS011;48746;55.578;37.902;2022-07-22T13:34:37;6.93;;;1.90;;
62679;SDS011;48746;55.578;37.902;2022-07-22T13:37:03;7.43;;;2.10;;
62679;SDS011;48746;55.578;37.902;2022-07-22T13:39:32;7.75;;;1.83;;
62679;SDS011;48746;55.578;37.902;2022-07-22T13:41:59;2.95;;;1.88;;
62679;SDS011;48746;55.578;37.902;2022-07-22T13:44:25;8.10;;;1.85;;
62679;SDS011;48746;55.578;37.902;2022-07-22T13:46:51;6.22;;;2.00;;
62679;SDS011;48746;55.578;37.902;2022-07-22T13:49:21;4.25;;;1.80;;
62679;SDS011;48746;55.578;37.902;2022-07-22T13:54:14;5.95;;;1.73;;
62679;SDS011;48746;55.578;37.902;2022-07-22T13:56:41;4.57;;;1.88;;
62679;SDS011;48746;55.578;37.902;2022-07-22T13:59:10;6.72;;;1.65;;
62679;SDS011;48746;55.578;37.902;2022-07-22T14:01:36;6.90;;;2.30;;
62679;SDS011;48746;55.578;37.902;2022-07-22T14:04:03;3.25;;;1.40;;
62679;SDS011;48746;55.578;37.902;2022-07-22T14:06:30;8.27;;;1.80;;
62679;SDS011;48746;55.578;37.902;2022-07-22T14:08:59;2.95;;;1.60;;
62679;SDS011;48746;55.578;37.902;2022-07-22T14:11:25;3.13;;;1.65;;
62679;SDS011;48746;55.578;37.902;2022-07-22T14:13:52;5.70;;;2.50;;
62679;SDS011;48746;55.578;37.902;2022-07-22T14:16:18;3.53;;;1.80;;
62679;SDS011;48746;55.578;37.902;2022-07-22T14:19:07;6.00;;;1.98;;
62679;SDS011;48746;55.578;37.902;2022-07-22T14:21:34;2.70;;;1.70;;
62679;SDS011;48746;55.578;37.902;2022-07-22T14:24:02;2.85;;;1.98;;
62679;SDS011;48746;55.578;37.902;2022-07-22T14:26:29;4.00;;;1.80;;
62679;SDS011;48746;55.578;37.902;2022-07-22T14:28:58;4.70;;;1.70;;
62679;SDS011;48746;55.578;37.902;2022-07-22T14:31:25;5.00;;;2.15;;
62679;SDS011;48746;55.578;37.902;2022-07-22T14:33:51;6.03;;;1.80;;
62679;SDS011;48746;55.578;37.902;2022-07-22T14:36:17;3.08;;;1.60;;
62679;SDS011;48746;55.578;37.902;2022-07-22T14:38:43;4.53;;;1.80;;
62679;SDS011;48746;55.578;37.902;2022-07-22T14:41:10;2.25;;;2.05;;
62679;SDS011;48746;55.578;37.902;2022-07-22T14:43:36;4.00;;;1.90;;
62679;SDS011;48746;55.578;37.902;2022-07-22T14:46:03;5.40;;;1.80;;
62679;SDS011;48746;55.578;37.902;2022-07-22T14:48:37;2.15;;;1.90;;
62679;SDS011;48746;55.578;37.902;2022-07-22T14:51:04;3.60;;;1.80;;
62679;SDS011;48746;55.578;37.902;2022-07-22T14:53:31;3.55;;;1.83;;
62679;SDS011;48746;55.578;37.902;2022-07-22T14:55:58;9.90;;;2.00;;
62679;SDS011;48746;55.578;37.902;2022-07-22T14:58:25;5.57;;;2.47;;
62679;SDS011;48746;55.578;37.902;2022-07-22T15:00:51;3.65;;;2.28;;
62679;SDS011;48746;55.578;37.902;2022-07-22T15:03:18;7.18;;;2.05;;
62679;SDS011;48746;55.578;37.902;2022-07-22T15:05:45;8.70;;;1.80;;
62679;SDS011;48746;55.578;37.902;2022-07-22T15:08:11;8.30;;;1.95;;
62679;SDS011;48746;55.578;37.902;2022-07-22T15:10:37;2.95;;;2.05;;
62679;SDS011;48746;55.578;37.902;2022-07-22T15:13:04;3.22;;;1.90;;
62679;SDS011;48746;55.578;37.902;2022-07-22T15:15:30;3.00;;;1.70;;
62679;SDS011;48746;55.578;37.902;2022-07-22T15:17:56;3.55;;;2.00;;
62679;SDS011;48746;55.578;37.902;2022-07-22T15:23:31;3.65;;;1.50;;
62679;SDS011;48746;55.578;37.902;2022-07-22T15:25:58;2.25;;;1.60;;
62679;SDS011;48746;55.578;37.902;2022-07-22T15:28:26;2.65;;;1.65;;
62679;SDS011;48746;55.578;37.902;2022-07-22T15:30:54;3.55;;;1.83;;
62679;SDS011;48746;55.578;37.902;2022-07-22T15:33:21;2.92;;;1.70;;
62679;SDS011;48746;55.578;37.902;2022-07-22T15:35:48;5.50;;;1.92;;
62679;SDS011;48746;55.578;37.902;2022-07-22T15:38:14;3.15;;;1.80;;
62679;SDS011;48746;55.578;37.902;2022-07-22T15:40:40;6.32;;;1.88;;
62679;SDS011;48746;55.578;37.902;2022-07-22T15:43:07;5.20;;;1.90;;
62679;SDS011;48746;55.578;37.902;2022-07-22T15:45:33;2.92;;;1.88;;
62679;SDS011;48746;55.578;37.902;2022-07-22T15:48:00;3.08;;;2.22;;
62679;SDS011;48746;55.578;37.902;2022-07-22T15:53:33;5.15;;;2.17;;
62679;SDS011;48746;55.578;37.902;2022-07-22T15:55:59;7.18;;;2.30;;
62679;SDS011;48746;55.578;37.902;2022-07-22T15:58:25;4.30;;;1.95;;